Fabian Garcia SC

Dec. 14, 2019, 5:10 p.m.

  • imperial
Air Temperature RH Dewpoint Wind Chill Heat Index Wind Speed Wind Direction Precipitation Solar Radiation Soil Temperature
Date Time Max Mean Mean Total Total
US/Mountain F % F F F MPH MPH MPH deg. deg. in. MJ/m^2 F
2019-12-13 17:10 63.68 31.92 33.2 63.68 63.68 2.59 4.56 3.15 13.0 204.2 0.0 0.001 49.42
2019-12-13 17:15 63.19 31.72 32.62 63.19 63.19 1.88 4.21 2.75 13.6 204.5 0.0 0.001 49.42
2019-12-13 17:20 62.83 31.58 32.19 62.83 62.83 1.7 3.85 1.79 16.8 167.6 0.0 0.0 49.41
2019-12-13 17:25 62.11 32.7 32.43 62.11 62.11 0.81 2.24 0.63 15.2 151.8 0.0 0.0 49.41
2019-12-13 17:30 61.27 34.09 32.72 61.27 61.27 0.0 0.0 0.0 0.0 0.0 0.0 0.0 49.39
2019-12-13 17:35 60.3 36.3 33.43 60.3 60.3 1.7 1.88 0.51 10.2 185.9 0.0 0.0 49.41
2019-12-13 17:40 59.63 36.5 32.97 59.63 59.63 0.81 1.88 0.4 19.0 223.1 0.0 0.0 49.37
2019-12-13 17:45 59.94 35.32 32.43 59.94 59.94 1.52 2.77 1.3 34.3 209.7 0.0 0.0 49.37
2019-12-13 17:50 60.06 34.98 32.3 60.06 60.06 0.0 2.95 1.66 13.5 169.1 0.0 0.0 49.35
2019-12-13 17:55 59.4 36.95 33.07 59.4 59.4 0.0 1.7 0.22 4.9 140.5 0.0 0.0 49.32
2019-12-13 18:00 58.12 40.95 34.5 58.12 58.12 2.06 2.06 0.2 14.3 219.3 0.0 0.0 49.3
2019-12-13 18:05 58.19 37.63 32.45 58.19 58.19 0.0 3.67 1.79 14.6 201.4 0.0 0.0 49.28
2019-12-13 18:10 58.86 36.78 32.48 58.86 58.86 0.0 4.56 0.89 20.3 210.7 0.0 0.0 49.26
2019-12-13 18:15 58.98 36.01 32.06 58.98 58.98 1.16 3.13 1.07 28.8 220.0 0.0 0.0 49.26
2019-12-13 18:20 58.87 35.4 31.54 58.87 58.87 2.24 2.42 1.28 32.3 210.7 0.0 0.0 49.23
2019-12-13 18:25 58.32 36.35 31.7 58.32 58.32 0.98 2.24 0.83 13.5 176.7 0.0 0.0 49.19
2019-12-13 18:30 58.03 36.21 31.35 58.03 58.03 0.0 0.81 0.11 4.2 268.6 0.0 0.0 49.15
2019-12-13 18:35 57.42 37.27 31.52 57.42 57.42 0.98 0.98 0.07 0.9 122.6 0.0 0.0 49.14
2019-12-13 18:40 57.67 37.78 32.08 57.67 57.67 1.16 3.85 1.99 35.4 103.6 0.0 0.0 49.12
2019-12-13 18:45 57.9 36.28 31.29 57.9 57.9 3.31 4.21 2.42 29.8 196.1 0.0 0.0 49.08
2019-12-13 18:50 59.38 33.91 30.93 59.38 59.38 2.77 3.85 2.51 66.9 257.4 0.0 0.0 49.05
2019-12-13 18:55 59.67 33.37 30.78 59.67 59.67 2.42 5.1 2.26 54.7 334.1 0.0 0.0 49.03
2019-12-13 19:00 59.25 34.05 30.92 59.25 59.25 0.98 3.67 2.64 17.6 238.3 0.0 0.0 48.99
2019-12-13 19:05 58.64 35.33 31.29 58.64 58.64 0.81 4.92 2.1 41.1 269.6 0.0 0.0 48.99
2019-12-13 19:10 58.03 36.15 31.31 58.03 58.03 1.34 3.85 2.19 23.9 271.8 0.0 0.0 48.96
2019-12-13 19:15 57.16 37.57 31.5 57.16 57.16 0.0 2.42 0.83 29.2 281.9 0.0 0.0 48.92
2019-12-13 19:20 56.68 37.91 31.29 56.68 56.68 2.24 2.95 1.79 32.8 273.9 0.0 0.0 48.9
2019-12-13 19:25 56.5 38.05 31.22 56.5 56.5 2.77 4.38 3.36 17.4 273.0 0.0 0.0 48.87
2019-12-13 19:30 56.08 39.07 31.5 56.08 56.08 5.1 6.0 4.52 13.1 267.8 0.0 0.0 48.85
2019-12-13 19:35 55.9 39.27 31.47 55.9 55.9 4.03 6.17 4.7 10.6 266.9 0.0 0.0 48.81
2019-12-13 19:40 56.08 38.32 31.02 56.08 56.08 4.56 6.89 4.9 14.3 271.3 0.0 0.0 48.79
2019-12-13 19:45 55.96 38.83 31.24 55.96 55.96 2.42 5.28 3.53 19.3 276.0 0.0 0.0 48.78
2019-12-13 19:50 55.47 39.2 31.03 55.47 55.47 1.16 3.85 1.63 51.0 288.5 0.0 0.0 48.72
2019-12-13 19:55 54.99 39.41 30.73 54.99 54.99 0.0 2.42 0.94 34.9 270.3 0.0 0.0 48.7
2019-12-13 20:00 54.25 41.38 31.27 54.25 54.25 1.7 1.88 0.51 27.9 354.5 0.0 0.0 48.69
2019-12-13 20:05 53.76 43.14 31.86 53.76 53.76 0.0 2.59 1.59 17.6 349.6 0.0 0.0 48.65
2019-12-13 20:10 53.15 42.94 31.19 53.15 53.15 0.0 1.7 0.31 18.8 347.7 0.0 0.0 48.65
2019-12-13 20:15 52.79 43.55 31.22 52.79 52.79 0.0 0.98 0.13 4.4 224.9 0.0 0.0 48.61
2019-12-13 20:20 52.25 44.8 31.42 52.25 52.25 1.52 1.52 0.11 19.1 203.2 0.0 0.0 48.58
2019-12-13 20:25 53.22 42.94 31.26 53.22 53.22 0.0 3.85 1.72 28.0 269.6 0.0 0.0 48.56
2019-12-13 20:30 53.29 43.48 31.63 53.29 53.29 1.88 2.24 1.1 21.3 252.2 0.0 0.0 48.54
2019-12-13 20:35 53.17 44.03 31.83 53.17 53.17 1.16 3.13 2.06 17.1 221.9 0.0 0.0 48.52
2019-12-13 20:40 52.63 45.28 32.03 52.63 52.63 0.0 1.7 0.51 6.9 195.4 0.0 0.0 48.51
2019-12-13 20:45 52.07 46.17 32.01 52.07 52.07 0.0 1.88 0.36 11.4 193.8 0.0 0.0 48.47
2019-12-13 20:50 51.46 46.98 31.88 51.46 51.46 0.0 0.0 0.0 0.0 0.0 0.0 0.0 48.45
2019-12-13 20:55 51.46 46.85 31.81 51.46 51.46 0.0 0.98 0.11 21.2 84.9 0.0 0.0 48.42
2019-12-13 21:00 51.58 46.54 31.76 51.58 51.58 0.0 0.0 0.0 0.0 0.0 0.0 0.0 48.38
2019-12-13 21:05 50.85 49.53 32.63 50.85 50.85 0.0 0.0 0.0 0.0 0.0 0.0 0.0 48.34
2019-12-13 21:10 49.75 51.02 32.35 49.75 49.75 0.0 0.0 0.0 0.0 0.0 0.0 0.0 48.33
2019-12-13 21:15 49.15 51.9 32.23 49.15 49.15 0.0 0.98 0.13 4.4 132.4 0.0 0.0 48.29
2019-12-13 21:20 48.29 54.82 32.79 48.29 48.29 0.0 0.0 0.0 0.0 0.0 0.0 0.0 48.25
2019-12-13 21:25 47.8 55.23 32.52 47.8 47.8 0.0 0.0 0.0 0.0 0.0 0.0 0.0 48.25
2019-12-13 21:30 47.7 55.74 32.65 47.7 47.7 0.0 1.52 0.11 5.0 201.9 0.0 0.0 48.2
2019-12-13 21:35 47.32 56.79 32.76 47.32 47.32 0.0 0.0 0.0 0.0 0.0 0.0 0.0 48.18
2019-12-13 21:40 46.65 58.83 33.01 46.65 46.65 0.0 0.98 0.11 2.4 177.7 0.0 0.0 48.16
2019-12-13 21:45 47.1 57.82 33.0 47.1 47.1 1.16 1.16 0.43 2.1 59.8 0.0 0.0 48.13
2019-12-13 21:50 47.21 57.99 33.18 47.21 47.21 0.0 1.52 0.47 3.1 67.6 0.0 0.0 48.07
2019-12-13 21:55 46.85 57.72 32.72 46.85 46.85 0.0 0.0 0.0 0.0 0.0 0.0 0.0 48.06
2019-12-13 22:00 46.72 57.96 32.71 46.72 46.72 0.0 0.0 0.0 0.0 0.0 0.0 0.0 48.02
2019-12-13 22:05 46.42 58.57 32.68 46.42 46.42 0.0 0.0 0.0 0.0 0.0 0.0 0.0 47.98
2019-12-13 22:10 46.13 60.67 33.29 46.13 46.13 0.0 1.16 0.22 1.9 194.5 0.0 0.0 47.97
2019-12-13 22:15 45.64 61.96 33.35 45.64 45.64 0.0 0.0 0.0 0.0 0.0 0.0 0.0 47.93
2019-12-13 22:20 45.28 62.31 33.15 45.28 45.28 0.0 1.16 0.2 0.2 177.8 0.0 0.0 47.89
2019-12-13 22:25 44.8 63.43 33.14 44.8 44.8 0.98 1.52 0.76 7.1 182.5 0.0 0.0 47.86
2019-12-13 22:30 44.37 63.56 32.78 44.37 44.37 2.06 2.06 0.56 27.8 215.6 0.0 0.0 47.82
2019-12-13 22:35 44.55 63.53 32.94 44.55 44.55 1.52 2.42 1.3 21.1 200.8 0.0 0.0 47.8
2019-12-13 22:40 44.17 63.97 32.75 44.17 44.17 0.81 1.16 0.09 19.7 159.4 0.0 0.0 47.77
2019-12-13 22:45 44.06 64.21 32.74 44.06 44.06 0.0 1.7 0.54 14.2 88.1 0.0 0.0 47.73
2019-12-13 22:50 43.57 65.43 32.75 43.57 43.57 0.0 0.0 0.0 0.0 0.0 0.0 0.0 47.73
2019-12-13 22:55 43.32 66.25 32.82 43.32 43.32 0.0 0.0 0.0 0.0 0.0 0.0 0.0 47.68
2019-12-13 23:00 42.84 68.49 33.18 42.84 42.84 0.0 0.0 0.0 0.0 0.0 0.0 0.0 47.64
2019-12-13 23:05 42.58 68.56 32.97 42.58 42.58 0.0 0.81 0.09 0.1 207.1 0.0 0.0 47.62
2019-12-13 23:10 42.35 69.37 33.04 42.35 42.35 0.0 0.0 0.0 0.0 0.0 0.0 0.0 47.59
2019-12-13 23:15 42.35 69.3 33.01 42.35 42.35 0.0 0.0 0.0 0.0 0.0 0.0 0.0 47.55
2019-12-13 23:20 42.12 69.65 32.91 42.12 42.12 0.0 0.0 0.0 0.0 0.0 0.0 0.0 47.53
2019-12-13 23:25 42.24 69.72 33.06 42.24 42.24 0.0 1.7 0.34 2.1 101.6 0.0 0.0 47.52
2019-12-13 23:30 42.35 69.65 33.14 42.35 42.35 0.0 2.24 0.81 5.1 94.8 0.0 0.0 47.48
2019-12-13 23:35 42.42 70.77 33.6 42.42 42.42 0.0 0.81 0.02 0.0 93.9 0.0 0.0 47.44
2019-12-13 23:40 42.49 70.54 33.59 42.49 42.49 0.0 0.0 0.0 0.0 0.0 0.0 0.0 47.41
2019-12-13 23:45 42.73 69.86 33.57 42.73 42.73 1.16 1.88 1.23 11.3 196.3 0.0 0.0 47.39
2019-12-13 23:50 42.37 70.94 33.61 42.37 42.37 0.0 2.06 0.43 2.4 211.3 0.0 0.0 47.35
2019-12-13 23:55 42.19 71.15 33.51 42.19 42.19 0.0 0.0 0.0 0.0 0.0 0.0 0.0 47.32
2019-12-14 00:00 42.24 71.22 33.59 42.24 42.24 0.0 0.0 0.0 0.0 0.0 0.0 0.0 47.28
2019-12-14 00:05 41.81 72.1 33.48 41.81 41.81 0.0 0.0 0.0 0.0 0.0 0.0 0.0 47.25
2019-12-14 00:10 41.58 73.18 33.63 41.58 41.58 0.0 0.0 0.0 0.0 0.0 0.0 0.0 47.23
2019-12-14 00:15 41.2 73.59 33.4 41.2 41.2 0.0 0.0 0.0 0.0 0.0 0.0 0.0 47.19
2019-12-14 00:20 41.02 74.34 33.48 41.02 41.02 0.0 0.0 0.0 0.0 0.0 0.0 0.0 47.17
2019-12-14 00:25 41.5 72.98 33.49 41.5 41.5 0.81 1.34 0.31 0.6 74.2 0.0 0.0 47.14
2019-12-14 00:30 41.5 72.71 33.4 41.5 41.5 0.0 0.0 0.0 0.0 0.0 0.0 0.0 47.1
2019-12-14 00:35 41.5 72.71 33.4 41.5 41.5 1.7 1.7 0.16 16.6 195.4 0.0 0.0 47.08
2019-12-14 00:40 41.14 73.66 33.37 41.14 41.14 0.0 1.88 1.03 7.1 204.0 0.0 0.0 47.05
2019-12-14 00:45 40.78 75.02 33.48 40.78 40.78 0.0 1.88 0.81 3.5 176.3 0.0 0.0 47.05
2019-12-14 00:50 40.53 75.94 33.54 40.53 40.53 0.0 0.0 0.0 0.0 0.0 0.0 0.0 47.01
2019-12-14 00:55 40.35 76.41 33.52 40.35 40.35 0.0 0.98 0.18 8.7 139.4 0.0 0.0 46.98
2019-12-14 01:00 40.66 76.31 33.79 40.66 40.66 1.7 2.24 0.98 16.4 167.6 0.0 0.0 46.94
2019-12-14 01:05 40.48 75.9 33.48 40.48 40.48 0.0 1.88 0.4 10.3 173.3 0.0 0.0 46.92
2019-12-14 01:10 40.53 76.41 33.7 40.53 40.53 0.0 0.0 0.0 0.0 0.0 0.0 0.0 46.9
2019-12-14 01:15 40.59 75.43 33.43 40.59 40.59 0.0 1.16 0.18 1.6 76.5 0.0 0.0 46.87
2019-12-14 01:20 40.41 76.24 33.52 40.41 40.41 0.0 0.81 0.02 0.0 139.8 0.0 0.0 46.83
2019-12-14 01:25 40.66 75.77 33.61 40.66 40.66 0.0 1.88 0.76 13.2 171.0 0.0 0.0 46.81
2019-12-14 01:30 40.53 75.46 33.38 40.53 40.53 0.0 0.0 0.0 0.0 0.0 0.0 0.0 46.8
2019-12-14 01:35 40.41 76.04 33.45 40.41 40.41 0.0 0.0 0.0 0.0 0.0 0.0 0.0 46.76
2019-12-14 01:40 40.28 75.76 33.24 40.28 40.28 0.0 0.0 0.0 0.0 0.0 0.0 0.0 46.72
2019-12-14 01:45 40.28 75.7 33.22 40.28 40.28 0.0 0.0 0.0 0.0 0.0 0.0 0.0 46.69
2019-12-14 01:50 39.79 76.55 33.03 39.79 39.79 0.98 1.52 0.18 2.1 208.5 0.0 0.0 46.67
2019-12-14 01:55 39.56 77.02 32.95 39.56 39.56 0.0 0.0 0.0 0.0 0.0 0.0 0.0 46.65
2019-12-14 02:00 39.56 77.84 33.22 39.56 39.56 0.0 0.0 0.0 0.0 0.0 0.0 0.0 46.62
2019-12-14 02:05 39.56 77.6 33.14 39.56 39.56 2.95 2.95 0.83 26.5 146.7 0.0 0.0 46.6
2019-12-14 02:10 39.74 77.27 33.21 39.74 39.74 1.16 4.21 2.39 48.7 219.5 0.0 0.0 46.56
2019-12-14 02:15 39.94 76.55 33.17 39.94 39.94 1.88 2.42 1.66 14.8 183.4 0.0 0.0 46.54
2019-12-14 02:20 40.42 75.16 33.18 40.42 40.42 1.52 3.67 2.44 23.0 172.7 0.0 0.0 46.51
2019-12-14 02:25 40.17 75.3 32.98 40.17 40.17 0.0 2.06 0.92 15.5 173.4 0.0 0.0 46.49
2019-12-14 02:30 40.3 75.5 33.17 40.3 40.3 2.06 2.95 1.57 31.3 178.2 0.0 0.0 46.47
2019-12-14 02:35 41.02 72.65 32.91 41.02 41.02 0.0 4.38 1.63 63.5 189.4 0.0 0.0 46.44
2019-12-14 02:40 40.53 73.8 32.83 40.53 40.53 0.0 1.52 0.69 28.1 225.4 0.0 0.0 46.4
2019-12-14 02:45 40.1 74.75 32.73 40.1 40.1 0.0 0.0 0.0 0.0 0.0 0.0 0.0 46.4
2019-12-14 02:50 39.56 76.52 32.79 39.56 39.56 2.06 2.06 0.11 0.8 175.0 0.0 0.0 46.36
2019-12-14 02:55 39.31 77.33 32.81 39.31 39.31 1.7 1.88 1.12 11.2 186.7 0.0 0.0 46.33
2019-12-14 03:00 39.43 76.48 32.66 39.43 39.43 0.81 2.42 0.94 9.4 177.6 0.0 0.0 46.33
2019-12-14 03:05 39.43 76.65 32.71 39.43 39.43 0.0 0.81 0.13 1.2 178.8 0.0 0.0 46.31
2019-12-14 03:10 39.07 77.67 32.69 39.07 39.07 1.34 2.24 1.07 10.1 180.8 0.0 0.0 46.27
2019-12-14 03:15 39.33 77.4 32.85 39.33 39.33 0.0 2.24 0.98 8.9 170.4 0.0 0.0 46.26
2019-12-14 03:20 39.2 77.07 32.62 39.2 39.2 0.0 0.0 0.0 0.0 0.0 0.0 0.0 46.22
2019-12-14 03:25 38.71 77.81 32.39 38.71 38.71 0.0 0.0 0.0 0.0 0.0 0.0 0.0 46.2
2019-12-14 03:30 38.71 78.15 32.49 38.71 38.71 0.0 0.81 0.02 0.0 163.9 0.0 0.0 46.2
2019-12-14 03:35 38.59 79.31 32.74 38.59 38.59 0.98 2.06 0.56 2.0 171.9 0.0 0.0 46.17
2019-12-14 03:40 38.84 78.36 32.68 38.84 38.84 1.7 2.06 1.5 10.7 162.7 0.0 0.0 46.15
2019-12-14 03:45 38.71 77.65 32.33 38.71 38.71 0.81 1.88 0.98 6.5 165.8 0.0 0.0 46.13
2019-12-14 03:50 38.71 78.83 32.71 38.71 38.71 2.59 2.95 1.81 9.8 177.2 0.0 0.0 46.09
2019-12-14 03:55 39.33 76.87 32.68 36.49 39.33 4.03 4.03 2.86 17.7 174.4 0.0 0.0 46.09
2019-12-14 04:00 39.69 75.44 32.56 39.69 39.69 2.42 4.38 2.84 20.0 175.4 0.0 0.0 46.04
2019-12-14 04:05 39.87 75.24 32.67 39.87 39.87 1.88 2.95 2.21 21.0 170.5 0.0 0.0 46.04
2019-12-14 04:10 39.81 75.78 32.79 39.81 39.81 2.06 2.24 1.57 19.0 156.7 0.0 0.0 46.02
2019-12-14 04:15 39.56 76.35 32.74 39.56 39.56 0.98 2.95 2.21 16.3 181.5 0.0 0.0 45.99
2019-12-14 04:20 39.2 77.44 32.74 39.2 39.2 2.59 3.49 2.37 22.1 159.4 0.0 0.0 45.97
2019-12-14 04:25 39.07 78.36 32.91 39.07 39.07 0.0 3.13 1.66 15.7 167.9 0.0 0.0 45.95
2019-12-14 04:30 38.71 79.38 32.88 38.71 38.71 0.81 2.24 0.87 14.8 136.1 0.0 0.0 45.91
2019-12-14 04:35 38.64 80.2 33.07 38.64 38.64 0.0 2.06 0.34 7.8 138.1 0.0 0.0 45.91
2019-12-14 04:40 38.46 81.0 33.14 38.46 38.46 1.34 1.7 0.67 10.1 175.7 0.0 0.0 45.88
2019-12-14 04:45 38.1 81.4 32.91 38.1 38.1 0.0 1.7 0.4 14.1 140.4 0.0 0.0 45.86
2019-12-14 04:50 37.92 82.5 33.07 37.92 37.92 0.0 1.16 0.09 0.7 143.6 0.0 0.0 45.84
2019-12-14 04:55 37.74 82.7 32.95 37.74 37.74 2.06 2.24 0.81 21.0 155.3 0.0 0.0 45.84
2019-12-14 05:00 37.74 83.2 33.11 37.74 37.74 0.81 1.7 0.34 8.8 130.3 0.0 0.0 45.81
2019-12-14 05:05 37.85 83.1 33.18 37.85 37.85 0.81 1.52 0.92 23.3 167.5 0.0 0.0 45.77
2019-12-14 05:10 37.67 82.8 32.91 37.67 37.67 0.0 0.98 0.09 7.6 198.4 0.0 0.0 45.77
2019-12-14 05:15 37.49 83.1 32.83 37.49 37.49 0.0 0.0 0.0 0.0 0.0 0.0 0.0 45.73
2019-12-14 05:20 37.38 82.8 32.63 37.38 37.38 1.34 1.88 0.63 11.1 180.2 0.0 0.0 45.73
2019-12-14 05:25 37.13 83.2 32.51 37.13 37.13 1.16 1.88 0.6 17.0 198.1 0.0 0.0 45.7
2019-12-14 05:30 37.26 84.1 32.9 37.26 37.26 2.06 2.59 1.01 11.0 162.3 0.0 0.0 45.66
2019-12-14 05:35 37.62 83.3 33.01 37.62 37.62 2.24 2.95 1.77 11.8 166.2 0.0 0.0 45.66
2019-12-14 05:40 37.74 82.4 32.86 37.74 37.74 0.0 2.59 1.59 17.6 178.6 0.0 0.0 45.64
2019-12-14 05:45 37.74 82.3 32.83 37.74 37.74 0.81 2.42 1.19 12.9 155.0 0.0 0.0 45.63
2019-12-14 05:50 37.62 82.3 32.71 37.62 37.62 0.0 1.16 0.18 6.1 149.5 0.0 0.0 45.59
2019-12-14 05:55 37.62 82.0 32.62 37.62 37.62 0.0 0.0 0.0 0.0 0.0 0.0 0.0 45.55
2019-12-14 06:00 37.38 82.0 32.39 37.38 37.38 1.34 1.88 0.83 5.8 108.0 0.0 0.0 45.55
2019-12-14 06:05 37.13 82.1 32.18 37.13 37.13 1.7 2.42 0.94 18.7 187.5 0.0 0.0 45.54
2019-12-14 06:10 37.0 83.9 32.59 37.0 37.0 1.7 2.24 1.61 10.0 181.6 0.0 0.0 45.5
2019-12-14 06:15 36.95 83.1 32.3 36.95 36.95 0.0 2.24 0.4 2.3 158.5 0.0 0.0 45.48
2019-12-14 06:20 36.82 83.0 32.15 36.82 36.82 0.0 0.0 0.0 0.0 0.0 0.0 0.0 45.48
2019-12-14 06:25 36.72 83.4 32.16 36.72 36.72 0.0 0.0 0.0 0.0 0.0 0.0 0.0 45.43
2019-12-14 06:30 36.16 83.7 31.7 36.16 36.16 0.0 0.0 0.0 0.0 0.0 0.0 0.0 45.43
2019-12-14 06:35 36.16 85.0 32.08 36.16 36.16 1.34 1.52 0.67 1.9 171.2 0.0 0.0 45.43
2019-12-14 06:40 36.28 84.7 32.12 36.28 36.28 0.0 1.34 0.13 1.7 168.2 0.0 0.0 45.39
2019-12-14 06:45 35.78 84.9 31.68 35.78 35.78 0.0 0.0 0.0 0.0 0.0 0.0 0.0 45.37
2019-12-14 06:50 35.78 85.5 31.86 35.78 35.78 0.0 0.0 0.0 0.0 0.0 0.0 0.0 45.34
2019-12-14 06:55 35.67 85.6 31.78 35.67 35.67 0.0 0.0 0.0 0.0 0.0 0.0 0.001 45.32
2019-12-14 07:00 35.67 86.1 31.93 35.67 35.67 0.0 0.0 0.0 0.0 0.0 0.0 0.001 45.28
2019-12-14 07:05 35.78 86.4 32.12 35.78 35.78 0.0 0.0 0.0 0.0 0.0 0.0 0.002 45.28
2019-12-14 07:10 36.39 85.6 32.49 36.39 36.39 1.88 2.24 0.65 5.5 224.3 0.0 0.002 45.27
2019-12-14 07:15 36.64 84.8 32.5 36.64 36.64 2.95 2.95 0.98 51.9 196.8 0.0 0.004 45.23
2019-12-14 07:20 37.26 83.6 32.75 37.26 37.26 2.06 2.77 1.41 46.2 215.3 0.0 0.008 45.21
2019-12-14 07:25 37.99 82.6 33.17 37.99 37.99 0.0 4.03 1.16 12.6 255.7 0.0 0.009 45.18
2019-12-14 07:30 38.17 81.1 32.89 38.17 38.17 2.95 3.49 1.03 33.1 174.4 0.0 0.007 45.18
2019-12-14 07:35 38.61 80.5 33.13 38.61 38.61 2.42 2.77 1.43 66.2 211.3 0.0 0.012 45.14
2019-12-14 07:40 39.52 79.19 33.61 39.52 39.52 1.88 4.56 2.01 79.8 313.1 0.0 0.021 45.14
2019-12-14 07:45 40.32 77.01 33.68 40.32 40.32 0.0 1.7 0.87 62.1 34.8 0.0 0.027 45.12
2019-12-14 07:50 40.68 76.09 33.73 40.68 40.68 0.0 1.34 0.16 0.8 174.3 0.0 0.036 45.1
2019-12-14 07:55 41.29 75.68 34.19 41.29 41.29 0.98 1.7 0.49 16.3 284.2 0.0 0.035 45.09
2019-12-14 08:00 41.77 74.93 34.41 41.77 41.77 0.0 2.42 1.16 67.6 289.9 0.0 0.044 45.09
2019-12-14 08:05 42.62 71.97 34.22 42.62 42.62 1.34 1.7 0.74 15.1 122.4 0.0 0.049 45.05
2019-12-14 08:10 43.47 68.17 33.67 43.47 43.47 1.16 2.95 1.59 12.3 101.5 0.0 0.054 45.05
2019-12-14 08:15 44.2 66.77 33.85 44.2 44.2 2.06 2.42 1.25 17.1 115.8 0.0 0.058 45.05
2019-12-14 08:20 44.62 66.46 34.13 44.62 44.62 0.81 3.13 1.39 14.1 116.3 0.0 0.062 45.03
2019-12-14 08:25 45.48 65.44 34.57 45.48 45.48 0.0 2.24 0.96 10.8 97.7 0.0 0.066 45.03
2019-12-14 08:30 47.61 60.08 34.44 47.61 47.61 2.95 2.95 0.78 11.1 148.7 0.0 0.071 45.03
2019-12-14 08:35 48.88 57.83 34.68 47.96 48.88 3.49 3.49 2.24 19.5 161.2 0.0 0.075 45.01
2019-12-14 08:40 49.8 57.29 35.3 49.8 49.8 2.77 4.03 2.51 18.8 158.9 0.0 0.079 45.01
2019-12-14 08:45 50.9 54.84 35.23 50.9 50.9 2.95 3.13 2.26 20.2 152.3 0.0 0.083 45.03
2019-12-14 08:50 51.01 55.21 35.5 51.01 51.01 1.7 4.03 2.33 19.3 172.1 0.0 0.087 45.0
2019-12-14 08:55 50.99 55.37 35.56 50.99 50.99 3.31 3.31 2.66 19.6 175.9 0.0 0.091 45.01
2019-12-14 09:00 52.02 54.08 35.92 52.02 52.02 1.88 3.67 2.17 19.6 158.2 0.0 0.095 45.01
2019-12-14 09:05 52.93 53.33 36.42 52.93 52.93 2.06 3.85 2.37 22.7 151.3 0.0 0.099 45.01
2019-12-14 09:10 53.91 51.66 36.51 53.91 53.91 0.98 1.88 1.16 13.2 125.8 0.0 0.103 45.05
2019-12-14 09:15 54.82 49.25 36.15 54.82 54.82 2.59 3.67 2.26 13.9 125.9 0.0 0.107 45.03
2019-12-14 09:20 55.36 48.23 36.12 55.36 55.36 1.88 4.03 2.46 20.7 129.7 0.0 0.111 45.03
2019-12-14 09:25 56.21 44.53 34.88 56.21 56.21 2.42 2.95 1.97 29.6 121.2 0.0 0.114 45.05
2019-12-14 09:30 56.57 42.8 34.21 56.57 56.57 2.95 4.74 2.62 26.3 158.1 0.0 0.118 45.07
2019-12-14 09:35 56.19 45.47 35.39 56.19 56.19 3.67 4.56 2.93 38.3 167.8 0.0 0.121 45.07
2019-12-14 09:40 56.32 45.58 35.56 56.32 56.32 2.06 4.38 2.75 24.8 159.2 0.0 0.124 45.07
2019-12-14 09:45 56.8 46.45 36.49 56.8 56.8 1.34 4.03 2.1 27.9 183.5 0.0 0.128 45.1
2019-12-14 09:50 57.34 46.55 37.03 57.34 57.34 1.52 2.77 1.41 14.8 204.9 0.0 0.131 45.14
2019-12-14 09:55 58.5 43.26 36.22 58.5 58.5 6.0 9.91 5.15 36.1 241.4 0.0 0.134 45.14
2019-12-14 10:00 59.22 39.33 34.47 59.22 59.22 7.96 10.8 8.17 13.9 241.5 0.0 0.137 45.18
2019-12-14 10:05 59.22 39.63 34.66 59.22 59.22 7.07 12.24 8.39 17.9 243.8 0.0 0.14 45.19
2019-12-14 10:10 59.52 39.39 34.79 59.52 59.52 6.17 10.27 7.07 17.1 249.2 0.0 0.143 45.23
2019-12-14 10:15 60.06 38.98 35.01 60.06 60.06 4.92 9.22 6.44 26.5 235.1 0.0 0.145 45.28
2019-12-14 10:20 60.67 37.8 34.78 60.67 60.67 4.74 7.07 4.45 25.4 214.9 0.0 0.148 45.32
2019-12-14 10:25 60.62 38.13 34.95 60.62 60.62 4.56 6.17 4.65 17.8 233.1 0.0 0.15 45.37
2019-12-14 10:30 61.09 37.28 34.8 61.09 61.09 4.56 8.12 5.37 29.5 194.2 0.0 0.153 45.43
2019-12-14 10:35 60.85 36.91 34.34 60.85 60.85 4.21 7.78 5.64 29.5 215.2 0.0 0.154 45.46
2019-12-14 10:40 61.88 37.15 35.42 61.88 61.88 2.24 5.64 3.91 18.2 198.1 0.0 0.156 45.52
2019-12-14 10:45 63.59 35.01 35.44 63.59 63.59 2.77 3.67 1.92 70.0 192.4 0.0 0.159 45.59
2019-12-14 10:50 63.1 34.37 34.55 63.1 63.1 1.7 5.46 2.66 50.1 218.9 0.0 0.161 45.64
2019-12-14 10:55 63.59 35.04 35.46 63.59 63.59 3.85 6.17 3.38 30.8 189.0 0.0 0.162 45.7
2019-12-14 11:00 63.21 34.43 34.68 63.21 63.21 2.95 6.17 3.53 34.5 214.1 0.0 0.164 45.75
2019-12-14 11:05 63.14 34.67 34.8 63.14 63.14 2.42 7.07 3.62 39.9 206.1 0.0 0.165 45.82
2019-12-14 11:10 64.31 33.11 34.67 64.31 64.31 7.78 7.78 3.6 20.7 168.1 0.0 0.166 45.91
2019-12-14 11:15 64.49 33.55 35.16 64.49 64.49 2.77 5.64 3.51 25.6 156.9 0.0 0.168 45.97
2019-12-14 11:20 64.62 34.16 35.72 64.62 64.62 2.06 5.1 3.33 39.4 186.9 0.0 0.169 46.06
2019-12-14 11:25 64.85 32.97 35.04 64.85 64.85 6.89 13.13 7.58 37.5 254.6 0.0 0.17 46.11
2019-12-14 11:30 64.92 32.53 34.76 64.92 64.92 9.22 14.03 8.61 24.8 246.7 0.0 0.171 46.2
2019-12-14 11:35 65.03 31.65 34.17 65.03 65.03 12.24 12.24 9.1 20.3 254.7 0.0 0.172 46.27
2019-12-14 11:40 64.72 31.95 34.14 64.72 64.72 9.57 16.89 11.1 14.7 250.6 0.0 0.172 46.35
2019-12-14 11:45 65.16 31.24 33.95 65.16 65.16 9.57 13.85 10.18 17.5 256.3 0.0 0.173 46.44
2019-12-14 11:50 65.21 31.85 34.48 65.21 65.21 13.13 13.13 9.64 18.1 248.2 0.0 0.173 46.51
2019-12-14 11:55 65.28 31.31 34.12 65.28 65.28 8.48 15.46 10.09 20.0 237.3 0.0 0.174 46.58
2019-12-14 12:00 65.28 30.97 33.84 65.28 65.28 7.61 13.49 9.04 18.1 244.5 0.0 0.174 46.67
2019-12-14 12:05 65.41 30.7 33.73 65.41 65.41 16.35 16.53 10.74 20.9 241.8 0.0 0.174 46.74
2019-12-14 12:10 65.21 31.34 34.08 65.21 65.21 11.52 15.82 11.32 15.7 256.4 0.0 0.174 46.81
2019-12-14 12:15 65.52 31.31 34.32 65.52 65.52 9.73 13.31 10.78 18.3 264.3 0.0 0.174 46.89
2019-12-14 12:20 65.93 30.22 33.79 65.93 65.93 9.73 13.67 8.61 23.3 254.4 0.0 0.174 46.98
2019-12-14 12:25 66.0 30.63 34.19 66.0 66.0 10.8 16.35 9.8 17.5 252.4 0.0 0.173 47.05
2019-12-14 12:30 66.0 30.05 33.71 66.0 66.0 13.13 15.64 11.74 16.4 255.4 0.0 0.173 47.12
2019-12-14 12:35 66.24 30.22 34.06 66.24 66.24 10.98 18.5 12.06 18.0 249.7 0.0 0.172 47.19
2019-12-14 12:40 66.06 29.95 33.68 66.06 66.06 12.06 18.14 11.74 18.9 246.6 0.0 0.171 47.25
2019-12-14 12:45 66.22 30.29 34.1 66.22 66.22 12.77 16.71 11.99 14.6 248.4 0.0 0.17 47.32
2019-12-14 12:50 66.34 30.29 34.21 66.34 66.34 10.8 14.92 11.48 20.2 243.0 0.0 0.169 47.39
2019-12-14 12:55 66.6 29.98 34.17 66.6 66.6 14.56 15.46 11.3 21.4 246.9 0.0 0.168 47.43
2019-12-14 13:00 66.7 29.71 34.04 66.7 66.7 20.11 20.11 11.34 16.7 240.1 0.0 0.167 47.5
2019-12-14 13:05 66.34 29.64 33.67 66.34 66.34 17.43 17.43 13.35 17.2 253.2 0.0 0.165 47.57
2019-12-14 13:10 66.58 29.27 33.56 66.58 66.58 11.7 18.32 12.71 18.8 246.5 0.0 0.164 47.62
2019-12-14 13:15 67.08 28.66 33.46 67.08 67.08 9.57 13.67 9.48 23.7 237.5 0.0 0.162 47.68
2019-12-14 13:20 66.96 29.34 33.94 66.96 66.96 6.17 17.25 11.12 24.2 243.2 0.0 0.16 47.75
2019-12-14 13:25 67.44 28.66 33.77 67.44 67.44 6.53 14.03 10.0 19.4 240.5 0.0 0.159 47.82
2019-12-14 13:30 67.68 28.86 34.15 67.68 67.68 7.96 12.42 9.4 14.7 244.8 0.0 0.157 47.86
2019-12-14 13:35 67.98 28.25 33.88 67.98 67.98 11.7 13.49 9.89 18.4 254.6 0.0 0.155 47.91
2019-12-14 13:40 67.68 27.74 33.16 67.68 67.68 5.46 14.56 9.93 20.5 262.3 0.0 0.152 47.98
2019-12-14 13:45 67.57 26.9 32.3 67.57 67.57 15.82 20.65 12.3 16.0 254.8 0.0 0.15 48.04
2019-12-14 13:50 67.32 27.47 32.61 67.32 67.32 10.45 17.07 12.42 17.7 258.3 0.0 0.148 48.09
2019-12-14 13:55 67.68 27.03 32.52 67.68 67.68 14.74 15.82 10.92 19.9 246.1 0.0 0.145 48.15
2019-12-14 14:00 67.57 27.3 32.67 67.57 67.57 14.56 17.96 11.65 18.1 252.4 0.0 0.143 48.2
2019-12-14 14:05 67.57 26.39 31.83 67.57 67.57 12.24 18.68 11.21 21.2 242.4 0.0 0.14 48.27
2019-12-14 14:10 67.68 26.36 31.89 67.68 67.68 13.49 17.07 12.12 19.6 245.5 0.0 0.137 48.31
2019-12-14 14:15 67.68 25.95 31.5 67.68 67.68 14.56 15.64 11.05 15.2 253.9 0.0 0.134 48.38
2019-12-14 14:20 67.93 25.14 30.93 67.93 67.93 11.34 18.68 13.53 18.2 245.4 0.0 0.131 48.42
2019-12-14 14:25 67.8 25.75 31.42 67.8 67.8 12.59 15.28 11.81 23.1 252.8 0.0 0.107 48.49
2019-12-14 14:30 68.05 24.73 30.63 68.05 68.05 12.42 18.14 12.73 16.3 253.2 0.0 0.137 48.52
2019-12-14 14:35 68.16 24.86 30.86 68.16 68.16 17.43 19.39 12.26 14.6 254.0 0.0 0.147 48.56
2019-12-14 14:40 67.8 25.37 31.05 67.8 67.8 10.98 20.83 13.82 13.2 263.4 0.0 0.144 48.63
2019-12-14 14:45 68.54 25.44 31.75 68.54 68.54 12.42 14.38 10.45 23.3 260.7 0.0 0.141 48.67
2019-12-14 14:50 68.36 25.27 31.43 68.36 68.36 9.73 16.35 11.88 14.5 257.7 0.0 0.141 48.7
2019-12-14 14:55 67.87 25.68 31.41 67.87 67.87 8.48 17.61 12.37 17.5 248.4 0.0 0.137 48.76
2019-12-14 15:00 68.41 25.95 32.13 68.41 68.41 12.06 14.03 9.53 17.3 256.4 0.0 0.13 48.81
2019-12-14 15:05 68.05 26.19 32.05 68.05 68.05 11.52 15.82 11.43 15.2 252.5 0.0 0.122 48.85
2019-12-14 15:10 67.8 26.02 31.68 67.8 67.8 8.68 15.99 11.92 20.2 255.9 0.0 0.115 48.88
2019-12-14 15:15 67.68 25.88 31.44 67.68 67.68 15.1 18.86 14.41 16.5 259.8 0.0 0.108 48.94
2019-12-14 15:20 67.93 26.9 32.61 67.93 67.93 11.16 17.07 11.83 15.8 257.7 0.0 0.112 48.97
2019-12-14 15:25 67.75 25.47 31.1 67.75 67.75 17.07 19.39 13.53 18.4 262.9 0.0 0.108 49.01
2019-12-14 15:30 67.93 26.22 31.97 67.93 67.93 12.95 15.82 11.65 17.9 248.4 0.0 0.103 49.06
2019-12-14 15:35 67.93 27.0 32.7 67.93 67.93 10.27 17.78 10.96 17.2 249.7 0.0 0.094 49.1
2019-12-14 15:40 68.05 26.96 32.77 68.05 68.05 8.48 14.74 10.31 17.6 251.1 0.0 0.086 49.14
2019-12-14 15:45 67.75 26.93 32.48 67.75 67.75 9.4 14.03 10.27 14.3 257.6 0.0 0.078 49.17
2019-12-14 15:50 67.32 27.17 32.33 67.32 67.32 10.45 17.07 11.39 18.2 265.7 0.0 0.07 49.21
2019-12-14 15:55 67.19 27.37 32.41 67.19 67.19 9.4 11.88 9.28 13.9 262.9 0.0 0.062 49.24
2019-12-14 16:00 67.19 27.88 32.87 67.19 67.19 6.53 12.06 8.12 20.2 263.1 0.0 0.054 49.28
2019-12-14 16:05 67.19 28.35 33.29 67.19 67.19 4.21 10.98 7.67 15.7 263.6 0.0 0.049 49.32
2019-12-14 16:10 67.08 27.64 32.56 67.08 67.08 8.68 13.67 6.76 19.6 261.6 0.0 0.044 49.32
2019-12-14 16:15 66.65 28.18 32.67 66.65 66.65 10.09 12.95 9.22 19.1 262.2 0.0 0.039 49.35
2019-12-14 16:20 66.58 28.49 32.88 66.58 66.58 7.25 11.16 6.67 13.1 258.3 0.0 0.034 49.39
2019-12-14 16:25 66.58 28.66 33.03 66.58 66.58 5.1 8.48 5.26 29.7 264.8 0.0 0.029 49.41
2019-12-14 16:30 66.4 28.86 33.05 66.4 66.4 6.53 8.3 5.73 35.1 273.9 0.0 0.023 49.42
2019-12-14 16:35 66.16 29.07 33.03 66.16 66.16 5.82 9.22 6.06 22.7 272.8 0.0 0.018 49.46
2019-12-14 16:40 65.79 30.22 33.67 65.79 65.79 2.06 6.71 3.69 26.5 250.3 0.0 0.013 49.46
2019-12-14 16:45 65.37 29.74 32.91 65.37 65.37 2.42 8.68 4.63 31.4 261.4 0.0 0.007 49.46
2019-12-14 16:50 64.51 31.17 33.33 64.51 64.51 8.12 8.12 4.68 25.5 257.2 0.0 0.003 49.48
2019-12-14 16:55 64.15 31.68 33.42 64.15 64.15 6.71 7.96 3.31 26.5 259.2 0.0 0.003 49.5
2019-12-14 17:00 63.79 32.05 33.4 63.79 63.79 5.28 8.68 4.12 18.9 261.1 0.0 0.002 49.5
2019-12-14 17:05 63.68 32.39 33.57 63.68 63.68 2.77 9.4 4.72 22.4 275.2 0.0 0.002 49.51
2019-12-14 17:10 63.09 33.21 33.67 63.09 63.09 3.31 5.1 3.27 21.6 257.1 0.0 0.001 49.51

Data is courtesy of the NM Climate Center. DO NOT USE IN LEGAL PROCEEDINGS.